Time;durP1;ratioP1;P1;durP2;ratioP2;P2;SDS_P1;SDS_P2;PMS_P1;PMS_P2;Temp;Humidity;BMP_temperature;BMP_pressure;BME280_temperature;BME280_humidity;BME280_pressure;Samples;Min_cycle;Max_cycle;Signal;HPM_P1;HPM_P2
2024/01/01 00:01:15;;;;;;;13.25;7.15;;;;;;;5.04;86.53;97458.38;4962268;28;20042;-81
2024/01/01 00:03:43;;;;;;;12.77;5.90;;;;;;;5.12;86.79;97449.97;4993620;28;20031;-81
2024/01/01 00:06:09;;;;;;;15.65;5.68;;;;;;;5.10;86.58;97452.06;4976073;28;20065;-81
2024/01/01 00:08:34;;;;;;;12.63;6.82;;;;;;;5.12;86.08;97461.38;4997609;28;20512;-80
2024/01/01 00:10:59;;;;;;;15.20;6.43;;;;;;;4.99;87.26;97445.06;4989470;28;20497;-81
2024/01/01 00:13:25;;;;;;;11.30;6.20;;;;;;;5.04;86.88;97445.13;4989767;28;20034;-80
2024/01/01 00:15:50;;;;;;;12.95;7.00;;;;;;;5.14;86.15;97459.28;4975056;28;20034;-81
2024/01/01 00:18:16;;;;;;;11.18;7.07;;;;;;;5.07;86.44;97441.97;4992306;28;20141;-80
2024/01/01 00:20:41;;;;;;;10.65;5.22;;;;;;;4.95;86.47;97458.00;4980915;28;20038;-81
2024/01/01 00:23:06;;;;;;;12.52;6.05;;;;;;;5.04;86.85;97448.59;4975247;28;20503;-80
2024/01/01 00:25:35;;;;;;;9.15;5.82;;;;;;;5.09;86.37;97453.91;4963196;28;20031;-80
2024/01/01 00:28:05;;;;;;;7.80;5.93;;;;;;;5.08;86.78;97447.03;4993631;28;20026;-80
2024/01/01 00:30:31;;;;;;;8.55;4.72;;;;;;;5.12;86.52;97464.00;4995697;28;20034;-81
2024/01/01 00:32:56;;;;;;;13.15;5.10;;;;;;;5.10;87.16;97460.81;4995794;28;20031;-80
2024/01/01 00:35:22;;;;;;;10.60;5.75;;;;;;;4.95;86.96;97458.00;4985638;28;20516;-80
2024/01/01 00:37:47;;;;;;;9.82;4.93;;;;;;;5.15;87.31;97458.25;4992663;28;20512;-80
2024/01/01 00:40:12;;;;;;;12.82;6.35;;;;;;;5.08;86.86;97459.47;5004514;28;20042;-81
2024/01/01 00:42:38;;;;;;;13.75;5.03;;;;;;;5.04;86.54;97463.66;4990014;28;20445;-81
2024/01/01 00:45:04;;;;;;;12.82;5.57;;;;;;;5.09;86.48;97467.13;4990741;28;20046;-80
2024/01/01 00:47:30;;;;;;;8.90;4.25;;;;;;;5.04;86.88;97463.66;4992575;28;20035;-81
2024/01/01 00:49:57;;;;;;;9.05;4.88;;;;;;;5.05;86.83;97460.75;4990147;28;20034;-81
2024/01/01 00:52:22;;;;;;;13.43;5.20;;;;;;;5.15;87.45;97475.94;4985055;28;20359;-80
2024/01/01 00:54:47;;;;;;;9.93;6.28;;;;;;;5.15;87.37;97458.25;4970115;28;20047;-80
2024/01/01 00:57:12;;;;;;;10.90;5.60;;;;;;;5.10;87.02;97463.47;4990037;28;20038;-80
2024/01/01 00:59:38;;;;;;;11.80;5.35;;;;;;;5.12;86.91;97458.72;4978291;28;20041;-81
2024/01/01 01:02:03;;;;;;;9.93;6.25;;;;;;;5.09;86.63;97461.03;4992669;28;20503;-81
2024/01/01 01:04:29;;;;;;;12.77;5.18;;;;;;;5.05;87.24;97463.41;4996990;28;20125;-81
2024/01/01 01:06:55;;;;;;;10.75;5.32;;;;;;;5.17;86.40;97472.00;4970294;28;20027;-80
2024/01/01 01:09:21;;;;;;;9.57;5.13;;;;;;;5.10;87.16;97460.00;4992347;28;20026;-80
2024/01/01 01:11:46;;;;;;;13.48;7.32;;;;;;;5.08;86.80;97470.03;4992874;28;20484;-80
2024/01/01 01:14:12;;;;;;;8.75;5.60;;;;;;;5.10;87.18;97471.41;4987449;28;20089;-80
2024/01/01 01:16:37;;;;;;;10.20;5.03;;;;;;;5.04;87.34;97464.47;4999339;28;20030;-81
2024/01/01 01:19:02;;;;;;;7.85;4.72;;;;;;;5.07;86.69;97468.44;4988964;28;20383;-81
2024/01/01 01:21:28;;;;;;;17.25;6.93;;;;;;;5.05;87.41;97476.63;4991536;28;20141;-80
2024/01/01 01:23:54;;;;;;;12.57;5.32;;;;;;;5.10;86.86;97494.38;4988723;28;20041;-80
2024/01/01 01:26:19;;;;;;;10.57;5.03;;;;;;;4.97;87.26;97477.06;4971798;28;20084;-80
2024/01/01 01:28:45;;;;;;;6.43;5.25;;;;;;;4.98;86.61;97465.41;4971004;28;20030;-81
2024/01/01 01:31:10;;;;;;;8.73;5.40;;;;;;;5.03;87.14;97477.91;4977775;28;20077;-80
2024/01/01 01:33:35;;;;;;;10.48;5.18;;;;;;;5.01;87.31;97486.09;4974434;28;20026;-80
2024/01/01 01:36:01;;;;;;;15.27;5.82;;;;;;;4.92;87.32;97465.59;4974837;28;20452;-80
2024/01/01 01:38:26;;;;;;;11.55;4.97;;;;;;;5.05;86.82;97479.25;4991088;28;20076;-81
2024/01/01 01:40:54;;;;;;;9.52;5.53;;;;;;;5.01;86.78;97488.72;4999318;28;20042;-80
2024/01/01 01:43:21;;;;;;;10.52;4.50;;;;;;;5.03;86.91;97486.63;4992169;28;20029;-80
2024/01/01 01:45:48;;;;;;;9.63;4.70;;;;;;;5.02;86.98;97486.91;4990203;28;20034;-81
2024/01/01 01:48:14;;;;;;;12.70;6.00;;;;;;;4.80;86.66;97476.31;4989803;28;20026;-80
2024/01/01 01:50:40;;;;;;;12.57;6.22;;;;;;;5.01;86.73;97486.09;4991407;28;20042;-81
2024/01/01 01:53:05;;;;;;;13.23;6.28;;;;;;;4.94;87.24;97468.81;4965842;28;20371;-81
2024/01/01 01:55:31;;;;;;;9.60;6.43;;;;;;;5.07;86.76;97485.09;4983924;28;20367;-80
2024/01/01 01:57:57;;;;;;;13.43;6.28;;;;;;;4.85;87.57;97494.09;4991561;28;20022;-80
2024/01/01 02:00:22;;;;;;;16.35;7.00;;;;;;;5.00;87.96;97473.13;4995779;28;20128;-80
2024/01/01 02:02:49;;;;;;;17.77;6.95;;;;;;;4.95;87.10;97473.06;4974050;28;20121;-80
2024/01/01 02:05:15;;;;;;;13.90;7.10;;;;;;;5.05;87.47;97486.38;4990203;28;20121;-80
2024/01/01 02:07:41;;;;;;;16.02;6.80;;;;;;;5.02;86.81;97487.66;4992406;28;20533;-80
2024/01/01 02:10:07;;;;;;;19.80;8.90;;;;;;;4.73;87.04;97483.63;4989637;28;20042;-80
2024/01/01 02:12:32;;;;;;;13.98;7.15;;;;;;;4.95;87.63;97513.53;4986505;28;20029;-80
2024/01/01 02:14:57;;;;;;;16.60;6.50;;;;;;;5.00;86.98;97502.22;4966213;28;20038;-80
2024/01/01 02:17:23;;;;;;;12.68;6.28;;;;;;;4.92;87.00;97506.06;4969592;28;20414;-81
2024/01/01 02:19:50;;;;;;;13.82;7.40;;;;;;;4.99;87.30;97511.97;4989845;28;20030;-81
2024/01/01 02:22:15;;;;;;;12.80;6.80;;;;;;;4.93;87.33;97499.75;4988392;28;20052;-81
2024/01/01 02:24:41;;;;;;;12.27;8.40;;;;;;;5.05;87.09;97508.34;4987749;28;20417;-80
2024/01/01 02:27:06;;;;;;;18.92;8.55;;;;;;;5.04;87.11;97505.97;4986265;28;20073;-81
2024/01/01 02:29:32;;;;;;;16.60;7.70;;;;;;;5.11;87.48;97503.94;4986926;28;20045;-80
2024/01/01 02:31:57;;;;;;;15.70;8.63;;;;;;;5.03;87.60;97501.69;4989996;28;20117;-80
2024/01/01 02:34:24;;;;;;;14.20;7.80;;;;;;;5.17;87.64;97492.38;4996170;28;20068;-81
2024/01/01 02:36:49;;;;;;;18.02;8.80;;;;;;;5.14;86.87;97482.25;4992610;28;20057;-80
2024/01/01 02:39:14;;;;;;;15.40;8.65;;;;;;;5.09;86.95;97493.59;4961450;28;20484;-80
2024/01/01 02:41:40;;;;;;;17.00;8.75;;;;;;;5.12;87.16;97500.22;4993789;28;20030;-80
2024/01/01 02:44:06;;;;;;;15.43;7.40;;;;;;;5.05;87.78;97496.97;4995532;28;20085;-81
2024/01/01 02:46:31;;;;;;;10.88;8.13;;;;;;;5.19;87.61;97500.84;4995362;28;20050;-80
2024/01/01 02:48:57;;;;;;;17.55;8.25;;;;;;;5.13;87.38;97499.97;4993506;28;20036;-80
2024/01/01 02:51:22;;;;;;;16.40;6.20;;;;;;;5.09;87.63;97483.00;4989891;28;20413;-81
2024/01/01 02:53:47;;;;;;;25.58;9.65;;;;;;;5.19;87.68;97504.28;4974056;28;20429;-80
2024/01/01 02:56:21;;;;;;;15.02;8.02;;;;;;;5.16;87.13;97493.41;4999907;28;20038;-81
2024/01/01 02:58:47;;;;;;;14.80;8.23;;;;;;;5.18;87.27;97488.66;5003188;28;20502;-80
2024/01/01 03:01:13;;;;;;;22.38;9.13;;;;;;;5.27;86.78;97495.13;4990014;28;20022;-80
2024/01/01 03:03:38;;;;;;;16.73;9.10;;;;;;;5.23;87.64;97496.66;4987586;28;20621;-80
2024/01/01 03:06:04;;;;;;;19.05;9.73;;;;;;;5.26;86.89;97494.31;4997880;28;20037;-81
2024/01/01 03:08:29;;;;;;;16.63;9.68;;;;;;;5.16;87.47;97503.97;4993426;28;20033;-80
2024/01/01 03:10:54;;;;;;;18.00;9.68;;;;;;;5.12;87.90;97494.94;4994130;28;20053;-80
2024/01/01 03:13:20;;;;;;;25.30;9.73;;;;;;;5.22;87.21;97503.00;5002277;28;20033;-81
2024/01/01 03:15:45;;;;;;;19.38;10.27;;;;;;;5.17;87.26;97493.16;4999468;28;20109;-80
2024/01/01 03:18:12;;;;;;;19.75;8.20;;;;;;;5.20;87.80;97489.22;4991329;28;20031;-81
2024/01/01 03:20:38;;;;;;;15.50;10.00;;;;;;;5.29;87.45;97498.31;4990030;28;20088;-81
2024/01/01 03:23:04;;;;;;;16.60;8.88;;;;;;;5.24;87.90;97495.63;5001921;28;20022;-80
2024/01/01 03:25:29;;;;;;;19.33;10.07;;;;;;;5.29;86.95;97485.88;4999117;28;20057;-81
2024/01/01 03:27:55;;;;;;;22.80;8.95;;;;;;;5.35;87.37;97489.41;4993147;28;20038;-80
2024/01/01 03:30:21;;;;;;;18.55;8.85;;;;;;;5.27;87.65;97489.81;4990931;28;20101;-80
2024/01/01 03:32:47;;;;;;;17.83;8.20;;;;;;;5.17;87.66;97479.13;4989792;28;20405;-80
2024/01/01 03:35:13;;;;;;;19.33;7.80;;;;;;;5.17;87.93;97489.72;4993113;28;20100;-80
2024/01/01 03:37:38;;;;;;;16.40;8.77;;;;;;;5.19;87.50;97477.03;5004745;28;20038;-80
2024/01/01 03:40:04;;;;;;;17.55;9.07;;;;;;;5.23;87.21;97486.06;5009671;28;20044;-80
2024/01/01 03:42:29;;;;;;;17.75;8.40;;;;;;;5.16;86.71;97474.88;4999624;28;20041;-80
2024/01/01 03:44:54;;;;;;;21.45;9.52;;;;;;;5.20;86.82;97489.22;4988609;28;20022;-79
2024/01/01 03:47:20;;;;;;;23.52;9.80;;;;;;;5.09;87.10;97469.78;4984883;28;20550;-81
2024/01/01 03:49:45;;;;;;;21.83;9.73;;;;;;;5.06;86.50;97472.94;4992077;28;20030;-81
2024/01/01 03:52:11;;;;;;;18.73;8.63;;;;;;;5.10;87.09;97481.16;4996648;28;20485;-80
2024/01/01 03:54:36;;;;;;;22.27;11.00;;;;;;;5.12;86.87;97477.22;4990502;28;20034;-81
2024/01/01 03:57:02;;;;;;;18.73;10.20;;;;;;;5.14;86.55;97471.69;4975828;28;20030;-80
2024/01/01 03:59:27;;;;;;;19.58;10.82;;;;;;;5.05;87.14;97473.97;4994942;28;20034;-80
2024/01/01 04:01:52;;;;;;;16.38;9.63;;;;;;;5.12;86.63;97471.94;4978131;28;20038;-80
2024/01/01 04:04:18;;;;;;;19.70;11.98;;;;;;;4.99;86.74;97450.38;4993167;28;20493;-80
2024/01/01 04:06:43;;;;;;;21.13;11.07;;;;;;;4.89;86.99;97455.53;4985566;28;20405;-80
2024/01/01 04:09:08;;;;;;;18.30;11.07;;;;;;;5.01;87.22;97449.06;5001759;28;20033;-80
2024/01/01 04:11:34;;;;;;;21.40;11.38;;;;;;;5.01;87.28;97462.28;4978391;28;20041;-80
2024/01/01 04:14:00;;;;;;;26.00;10.95;;;;;;;5.05;87.26;97465.22;4973614;28;20031;-80
2024/01/01 04:16:25;;;;;;;20.08;11.27;;;;;;;5.07;87.03;97455.22;4970170;28;20117;-81
2024/01/01 04:18:51;;;;;;;24.58;11.90;;;;;;;4.89;87.78;97450.25;4976921;28;20434;-80
2024/01/01 04:21:16;;;;;;;24.38;13.25;;;;;;;4.96;87.95;97466.72;4991061;28;20073;-80
2024/01/01 04:23:42;;;;;;;25.95;12.75;;;;;;;4.97;87.06;97453.25;4994116;28;20033;-80
2024/01/01 04:26:07;;;;;;;25.33;12.98;;;;;;;5.09;87.19;97461.84;4997693;28;20045;-80
2024/01/01 04:28:33;;;;;;;27.15;13.68;;;;;;;4.89;87.51;97444.97;5000946;28;20121;-80
2024/01/01 04:30:58;;;;;;;25.05;14.32;;;;;;;4.83;87.80;97451.22;4977476;28;20117;-80
2024/01/01 04:33:23;;;;;;;28.20;15.35;;;;;;;4.58;87.20;97441.16;4992387;28;20053;-80
2024/01/01 04:35:49;;;;;;;30.27;14.55;;;;;;;5.01;87.40;97448.25;4982230;28;20038;-81
2024/01/01 04:38:14;;;;;;;29.80;14.93;;;;;;;4.92;87.94;97460.31;5009200;28;20036;-80
2024/01/01 04:40:40;;;;;;;26.08;14.60;;;;;;;4.78;87.70;97462.56;5012971;28;20055;-80
2024/01/01 04:43:05;;;;;;;29.42;14.32;;;;;;;4.88;87.42;97457.38;4977601;28;20037;-80
2024/01/01 04:45:36;;;;;;;33.00;16.50;;;;;;;4.99;86.93;97460.94;4990605;28;20030;-80
2024/01/01 04:48:05;;;;;;;27.73;14.70;;;;;;;4.82;87.79;97453.09;4991430;28;20026;-80
2024/01/01 04:50:34;;;;;;;31.65;14.82;;;;;;;4.92;86.87;97449.75;4976414;28;20485;-80
2024/01/01 04:52:59;;;;;;;24.98;14.25;;;;;;;4.95;87.41;97450.06;4990652;28;20478;-80
2024/01/01 04:55:24;;;;;;;28.25;14.65;;;;;;;4.77;86.62;97449.56;5007817;28;20105;-80
2024/01/01 04:57:50;;;;;;;28.75;14.77;;;;;;;4.82;87.55;97462.84;4982127;28;20390;-80
2024/01/01 05:00:15;;;;;;;32.03;14.05;;;;;;;4.79;87.52;97461.50;5000076;28;20044;-80
2024/01/01 05:02:41;;;;;;;27.67;14.32;;;;;;;4.85;87.33;97465.00;5000020;28;20100;-80
2024/01/01 05:05:08;;;;;;;25.10;12.90;;;;;;;4.94;87.90;97463.50;4979945;28;20493;-80
2024/01/01 05:07:34;;;;;;;28.55;14.55;;;;;;;4.81;87.25;97451.47;4996484;28;20036;-80
2024/01/01 05:09:59;;;;;;;29.83;14.25;;;;;;;4.73;87.03;97445.81;4980453;28;21258;-80
2024/01/01 05:12:25;;;;;;;29.95;13.25;;;;;;;4.88;87.03;97453.94;4998180;28;20030;-80
2024/01/01 05:14:50;;;;;;;29.80;14.82;;;;;;;4.81;87.00;97442.72;4993408;28;20400;-80
2024/01/01 05:17:16;;;;;;;32.08;13.50;;;;;;;4.90;86.98;97455.28;4970344;28;20112;-82
2024/01/01 05:19:41;;;;;;;27.65;12.27;;;;;;;4.86;87.42;97442.81;4999200;28;20033;-80
2024/01/01 05:22:07;;;;;;;27.95;12.65;;;;;;;4.94;87.26;97452.94;5008331;28;20061;-80
2024/01/01 05:24:32;;;;;;;23.33;10.77;;;;;;;4.89;87.28;97444.97;4992796;28;20717;-80
2024/01/01 05:26:57;;;;;;;22.90;11.32;;;;;;;4.93;87.51;97438.94;5001015;28;20069;-80
2024/01/01 05:29:23;;;;;;;25.90;11.48;;;;;;;4.94;86.31;97440.53;4985230;28;20033;-80
2024/01/01 05:31:48;;;;;;;21.27;8.48;;;;;;;4.96;87.35;97449.00;4995715;28;20678;-80
2024/01/01 05:34:16;;;;;;;23.92;10.15;;;;;;;5.01;86.64;97448.25;4988221;28;20060;-80
2024/01/01 05:36:41;;;;;;;25.90;8.88;;;;;;;5.05;86.56;97442.25;4991857;28;20034;-80
2024/01/01 05:39:06;;;;;;;19.35;10.00;;;;;;;5.06;86.93;97456.28;4982395;28;20034;-81
2024/01/01 05:41:32;;;;;;;18.02;10.43;;;;;;;4.95;87.42;97446.63;4979013;28;20038;-80
2024/01/01 05:43:57;;;;;;;24.63;10.52;;;;;;;4.89;87.28;97439.69;4996251;28;20039;-80
2024/01/01 05:46:23;;;;;;;16.40;8.60;;;;;;;4.98;87.34;97449.56;4976965;28;20046;-80
2024/01/01 05:48:49;;;;;;;25.42;9.07;;;;;;;5.03;86.98;97457.56;4995977;28;20042;-80
2024/01/01 05:51:16;;;;;;;15.85;7.75;;;;;;;4.96;86.88;97443.72;4987295;28;20505;-80
2024/01/01 05:53:41;;;;;;;21.20;7.93;;;;;;;5.00;87.03;97451.97;4991940;28;20682;-80
2024/01/01 05:56:07;;;;;;;17.00;7.80;;;;;;;5.01;86.97;97449.06;4991680;28;20026;-80
2024/01/01 05:58:32;;;;;;;13.57;5.05;;;;;;;4.99;86.77;97455.66;4987988;28;20027;-80
2024/01/01 06:00:58;;;;;;;15.45;7.95;;;;;;;5.02;87.37;97455.94;4973113;28;20092;-80
2024/01/01 06:03:23;;;;;;;13.95;7.15;;;;;;;5.01;86.89;97470.22;4999145;28;20033;-80
2024/01/01 06:05:49;;;;;;;23.15;8.18;;;;;;;4.89;87.51;97455.53;4991426;28;20592;-80
2024/01/01 06:08:14;;;;;;;18.13;7.05;;;;;;;4.97;87.37;97455.09;4969506;28;20030;-80
2024/01/01 06:10:39;;;;;;;10.88;6.22;;;;;;;4.93;87.18;97454.81;4980097;28;20038;-80
2024/01/01 06:13:05;;;;;;;15.88;7.57;;;;;;;4.93;86.77;97454.00;4991996;28;20032;-80
2024/01/01 06:15:30;;;;;;;15.70;7.72;;;;;;;4.94;87.57;97455.59;4996859;28;20508;-81
2024/01/01 06:17:56;;;;;;;14.52;8.38;;;;;;;4.93;86.22;97473.31;4993784;28;20022;-80
2024/01/01 06:20:21;;;;;;;17.92;6.22;;;;;;;4.95;86.99;97476.50;4986544;28;20030;-80
2024/01/01 06:22:47;;;;;;;17.83;7.10;;;;;;;4.85;87.43;97475.59;4985489;28;20551;-80
2024/01/01 06:25:13;;;;;;;13.85;6.57;;;;;;;4.96;86.94;97482.56;4995502;28;20034;-80
2024/01/01 06:27:38;;;;;;;14.50;6.45;;;;;;;4.98;87.29;97469.94;4991106;28;20045;-80
2024/01/01 06:30:05;;;;;;;20.80;6.05;;;;;;;4.90;86.28;97467.69;4989972;28;20396;-80
2024/01/01 06:32:31;;;;;;;16.42;6.78;;;;;;;4.86;87.31;97475.34;4996244;28;20036;-80
2024/01/01 06:34:56;;;;;;;17.48;7.97;;;;;;;4.91;86.59;97464.03;5001621;28;20045;-80
2024/01/01 06:37:21;;;;;;;19.20;6.93;;;;;;;4.98;86.67;97483.16;4993685;28;20026;-80
2024/01/01 06:39:47;;;;;;;15.55;5.22;;;;;;;4.95;86.80;97488.91;4994203;28;20034;-80
2024/01/01 06:42:12;;;;;;;15.68;5.80;;;;;;;4.88;86.70;97477.72;4990480;28;20057;-80
2024/01/01 06:44:37;;;;;;;17.08;7.88;;;;;;;4.96;86.90;97491.31;4993787;28;20029;-80
2024/01/01 06:47:03;;;;;;;13.52;7.30;;;;;;;4.95;87.08;97496.84;4991336;28;20026;-80
2024/01/01 06:49:29;;;;;;;17.00;7.10;;;;;;;5.01;86.77;97503.78;4971711;28;20076;-80
2024/01/01 06:51:54;;;;;;;18.65;7.35;;;;;;;4.92;86.78;97507.91;4985333;28;20030;-80
2024/01/01 06:54:20;;;;;;;19.67;7.18;;;;;;;5.00;86.46;97512.78;4973762;28;20489;-81
2024/01/01 06:56:45;;;;;;;21.33;7.75;;;;;;;5.05;86.01;97526.84;4987926;28;20493;-81
2024/01/01 06:59:12;;;;;;;17.30;6.18;;;;;;;4.93;86.56;97526.19;4992548;28;20396;-81
2024/01/01 07:01:38;;;;;;;18.58;6.40;;;;;;;4.91;86.87;97523.00;4986132;28;20416;-80
2024/01/01 07:04:03;;;;;;;11.57;6.15;;;;;;;4.94;86.39;97524.31;4996168;28;20039;-80
2024/01/01 07:06:29;;;;;;;20.02;7.07;;;;;;;5.00;86.82;97544.50;4990071;28;20417;-81
2024/01/01 07:08:54;;;;;;;17.83;7.13;;;;;;;5.04;86.74;97532.41;4988320;28;20065;-80
2024/01/01 07:11:20;;;;;;;17.23;6.53;;;;;;;4.97;86.10;97526.47;4957583;28;20031;-81
2024/01/01 07:13:45;;;;;;;17.35;6.55;;;;;;;4.88;86.24;97534.03;4956265;28;20064;-81
2024/01/01 07:16:10;;;;;;;16.77;6.57;;;;;;;4.96;87.14;97551.31;4988395;28;20040;-81
2024/01/01 07:18:36;;;;;;;18.90;5.95;;;;;;;4.80;87.17;97555.59;4954379;28;20034;-81
2024/01/01 07:21:02;;;;;;;13.25;5.43;;;;;;;4.99;86.49;97566.69;4990937;28;20030;-80
2024/01/01 07:23:29;;;;;;;19.13;5.97;;;;;;;4.94;86.36;97556.03;4994126;28;20497;-80
2024/01/01 07:25:54;;;;;;;19.92;5.82;;;;;;;4.95;86.65;97570.88;4958166;28;20075;-80
2024/01/01 07:28:20;;;;;;;14.27;5.53;;;;;;;4.94;86.57;97564.78;4976394;28;20120;-80
2024/01/01 07:30:45;;;;;;;17.77;6.05;;;;;;;4.95;86.75;97561.09;4994112;28;20062;-80
2024/01/01 07:33:10;;;;;;;12.68;5.18;;;;;;;4.97;86.72;97551.09;4984086;28;20049;-80
2024/01/01 07:35:36;;;;;;;23.88;6.15;;;;;;;4.99;86.41;97566.69;4977130;28;20034;-80
2024/01/01 07:38:01;;;;;;;21.23;5.38;;;;;;;4.92;86.02;97558.94;4994924;28;20034;-80
2024/01/01 07:40:26;;;;;;;13.18;5.07;;;;;;;4.86;85.95;97546.69;4991600;28;20382;-80
2024/01/01 07:42:52;;;;;;;18.20;4.82;;;;;;;4.99;86.13;97562.22;4973796;28;20042;-80
2024/01/01 07:45:17;;;;;;;10.70;3.72;;;;;;;4.95;86.52;97562.94;5000816;28;20050;-80
2024/01/01 07:47:43;;;;;;;16.48;5.10;;;;;;;5.02;85.44;97558.28;4975787;28;20482;-80
2024/01/01 07:50:10;;;;;;;16.35;4.70;;;;;;;4.85;85.44;97557.53;4992950;28;20042;-81
2024/01/01 07:52:35;;;;;;;18.20;4.60;;;;;;;4.92;85.78;97561.56;4960618;28;20121;-80
2024/01/01 07:55:00;;;;;;;10.82;4.38;;;;;;;5.00;86.01;97571.72;5000359;28;20110;-80
2024/01/01 07:57:26;;;;;;;9.52;3.70;;;;;;;5.08;85.36;97581.09;5009992;28;20026;-80
2024/01/01 07:59:55;;;;;;;11.95;4.40;;;;;;;4.93;85.32;97568.47;4998345;28;20030;-80
2024/01/01 08:02:21;;;;;;;11.65;3.63;;;;;;;4.89;85.76;97566.56;4996916;28;20033;-80
2024/01/01 08:04:46;;;;;;;15.75;4.40;;;;;;;4.86;85.96;97565.19;4983524;28;20038;-80
2024/01/01 08:07:11;;;;;;;13.50;4.03;;;;;;;4.99;85.51;97575.44;4979941;28;20038;-80
2024/01/01 08:09:37;;;;;;;11.32;3.40;;;;;;;4.99;85.52;97571.97;4999766;28;20497;-80
2024/01/01 08:12:02;;;;;;;10.52;5.35;;;;;;;5.05;85.15;97577.09;4993876;28;20407;-80
2024/01/01 08:14:27;;;;;;;11.63;3.95;;;;;;;4.95;85.97;97573.50;5009129;28;20509;-80
2024/01/01 08:16:53;;;;;;;7.95;3.22;;;;;;;4.93;86.00;97567.69;4964297;28;20031;-80
2024/01/01 08:19:18;;;;;;;14.48;3.70;;;;;;;4.84;86.13;97564.66;4975437;28;20113;-80
2024/01/01 08:21:43;;;;;;;16.38;3.55;;;;;;;5.05;85.62;97581.56;4993640;28;20122;-80
2024/01/01 08:24:09;;;;;;;8.13;3.03;;;;;;;4.97;85.59;97584.66;5001195;28;20050;-80
2024/01/01 08:26:34;;;;;;;10.88;3.25;;;;;;;5.00;85.97;97587.59;4996140;28;20401;-80
2024/01/01 08:28:59;;;;;;;10.65;3.28;;;;;;;4.96;85.23;97583.84;5003499;28;20029;-80
2024/01/01 08:31:26;;;;;;;22.10;3.80;;;;;;;4.96;85.57;97575.09;4981631;28;20046;-80
2024/01/01 08:33:51;;;;;;;10.15;2.92;;;;;;;5.04;85.49;97596.66;4977732;28;20194;-80
2024/01/01 08:36:19;;;;;;;13.05;3.47;;;;;;;5.08;85.93;97599.59;4996520;28;20129;-80
2024/01/01 08:38:44;;;;;;;10.02;3.03;;;;;;;5.09;85.56;97601.19;4974824;28;20458;-80
2024/01/01 08:41:10;;;;;;;18.63;3.65;;;;;;;5.06;85.70;97591.13;4979500;28;20074;-80
2024/01/01 08:43:35;;;;;;;9.23;2.75;;;;;;;5.04;86.40;97606.44;4993667;28;20098;-80
2024/01/01 08:46:03;;;;;;;4.80;1.80;;;;;;;5.11;85.86;97601.78;4996439;28;20022;-80
2024/01/01 08:48:29;;;;;;;13.50;4.78;;;;;;;5.06;85.35;97609.63;4975620;28;20093;-80
2024/01/01 08:50:54;;;;;;;13.65;5.32;;;;;;;5.04;85.69;97586.09;4999349;28;20065;-80
2024/01/01 08:53:19;;;;;;;16.38;7.30;;;;;;;4.97;85.14;97595.22;4976601;28;20030;-80
2024/01/01 08:55:45;;;;;;;19.90;6.03;;;;;;;5.09;85.28;97594.06;4979734;28;20040;-80
2024/01/01 08:58:10;;;;;;;17.10;6.85;;;;;;;5.22;85.21;97600.88;4978897;28;20030;-80
2024/01/01 09:00:35;;;;;;;12.63;4.72;;;;;;;5.14;85.22;97607.38;4993368;28;20053;-81
2024/01/01 09:03:01;;;;;;;10.75;6.00;;;;;;;5.17;86.17;97601.59;4995551;28;20058;-80
2024/01/01 09:05:26;;;;;;;19.13;5.32;;;;;;;5.25;85.01;97608.31;4990163;28;20402;-80
2024/01/01 09:07:52;;;;;;;16.70;5.00;;;;;;;5.18;85.57;97603.19;4972037;28;20405;-80
2024/01/01 09:10:17;;;;;;;15.63;4.75;;;;;;;5.28;85.62;97605.19;4987868;28;20120;-80
2024/01/01 09:12:43;;;;;;;20.98;4.50;;;;;;;5.19;85.51;97604.81;4976155;28;20042;-80
2024/01/01 09:15:09;;;;;;;5.95;2.72;;;;;;;5.29;84.94;97609.41;4974397;28;20042;-80
2024/01/01 09:17:35;;;;;;;9.88;4.55;;;;;;;5.29;85.39;97620.00;4994429;28;20100;-80
2024/01/01 09:20:00;;;;;;;22.77;3.58;;;;;;;5.33;85.48;97605.22;4989711;28;20042;-80
2024/01/01 09:22:25;;;;;;;15.35;3.65;;;;;;;5.32;84.96;97603.63;4960695;28;20035;-80
2024/01/01 09:24:51;;;;;;;13.45;3.28;;;;;;;5.31;84.59;97608.13;4989174;28;21235;-80
2024/01/01 09:27:16;;;;;;;15.05;3.67;;;;;;;5.40;84.63;97610.34;4970576;28;20430;-80
2024/01/01 09:29:42;;;;;;;16.02;3.67;;;;;;;5.46;84.55;97617.31;4975981;28;20545;-80
2024/01/01 09:32:07;;;;;;;9.40;3.28;;;;;;;5.45;84.59;97628.94;4975369;28;20122;-80
2024/01/01 09:34:32;;;;;;;12.48;2.83;;;;;;;5.41;85.23;97627.81;4993038;28;20030;-80
2024/01/01 09:36:59;;;;;;;13.93;3.55;;;;;;;5.41;84.68;97633.13;4999054;28;20037;-80
2024/01/01 09:39:24;;;;;;;13.95;3.13;;;;;;;5.35;84.32;97626.97;4998525;28;20096;-80
2024/01/01 09:41:50;;;;;;;17.30;3.38;;;;;;;5.36;84.83;97625.91;4979136;28;20026;-80
2024/01/01 09:44:15;;;;;;;10.93;2.78;;;;;;;5.37;83.92;97637.28;4992415;28;20488;-81
2024/01/01 09:46:41;;;;;;;16.70;3.63;;;;;;;5.37;84.03;97635.47;4992373;28;20092;-80
2024/01/01 09:49:07;;;;;;;13.48;3.20;;;;;;;5.41;83.88;97649.78;4995609;28;20058;-80
2024/01/01 09:51:39;;;;;;;16.95;3.22;;;;;;;5.46;83.89;97639.25;4991582;28;20054;-80
2024/01/01 09:54:04;;;;;;;11.65;2.40;;;;;;;5.46;84.06;97633.19;4989184;28;20462;-80
2024/01/01 09:56:29;;;;;;;15.95;3.72;;;;;;;5.49;84.29;97633.50;4987186;28;20121;-80
2024/01/01 09:58:57;;;;;;;15.65;3.90;;;;;;;5.57;83.42;97642.84;4970149;28;20118;-80
2024/01/01 10:01:23;;;;;;;11.13;3.58;;;;;;;5.60;84.39;97647.66;4973025;28;20030;-80
2024/01/01 10:04:03;;;;;;;7.43;3.05;;;;;;;5.53;84.46;97631.13;4967147;28;20046;-80
2024/01/01 10:06:33;;;;;;;9.77;3.15;;;;;;;5.47;84.65;97637.41;4989071;28;20029;-80
2024/01/01 10:09:10;;;;;;;17.40;4.00;;;;;;;5.48;84.33;97618.66;4988084;28;20038;-80
2024/01/01 10:11:44;;;;;;;14.57;3.83;;;;;;;5.58;84.25;97641.78;4987547;28;20081;-80
2024/01/01 10:14:11;;;;;;;10.80;3.00;;;;;;;5.56;84.39;97631.47;4987587;28;20409;-80
2024/01/01 10:16:38;;;;;;;21.58;3.50;;;;;;;5.51;84.92;97638.53;4987010;28;20026;-80
2024/01/01 10:19:04;;;;;;;10.98;3.33;;;;;;;5.46;84.47;97643.78;4995417;28;20081;-80
2024/01/01 10:21:40;;;;;;;8.05;2.70;;;;;;;5.44;84.21;97617.53;4979419;28;20555;-80
2024/01/01 10:24:13;;;;;;;11.35;3.35;;;;;;;5.54;84.64;97632.75;4979738;28;20061;-80
2024/01/01 10:26:43;;;;;;;17.60;4.40;;;;;;;5.60;84.56;97640.50;4991169;28;20448;-80
2024/01/01 10:29:11;;;;;;;13.10;3.45;;;;;;;5.61;84.23;97644.78;4994706;28;20035;-80
2024/01/01 10:31:48;;;;;;;15.68;3.75;;;;;;;5.57;83.36;97641.00;4990290;28;20057;-80
2024/01/01 10:34:14;;;;;;;11.85;3.78;;;;;;;5.58;83.37;97642.59;4973758;28;20039;-80
2024/01/01 10:36:41;;;;;;;15.85;4.82;;;;;;;5.61;83.30;97647.41;4996693;28;20029;-80
2024/01/01 10:39:08;;;;;;;9.60;3.00;;;;;;;5.62;83.50;97646.34;4995107;28;20495;-80
2024/01/01 10:41:36;;;;;;;8.35;3.25;;;;;;;5.72;83.46;97662.34;4989444;28;20034;-80
2024/01/01 10:44:09;;;;;;;18.73;4.43;;;;;;;5.66;83.81;97647.47;4975122;28;20027;-80
2024/01/01 10:46:39;;;;;;;12.98;3.95;;;;;;;5.64;83.07;97651.38;4996253;28;20025;-80
2024/01/01 10:49:06;;;;;;;15.88;3.42;;;;;;;5.71;83.13;97655.47;4996923;28;20030;-80
2024/01/01 10:51:55;;;;;;;12.57;3.97;;;;;;;5.69;82.84;97657.56;4991460;28;20038;-80
2024/01/01 10:55:02;;;;;;;17.98;3.25;;;;;;;5.79;82.57;97664.81;4991548;28;20026;-80
2024/01/01 10:57:53;;;;;;;19.70;3.30;;;;;;;5.76;82.11;97660.84;4999044;28;20085;-80
2024/01/01 11:00:34;;;;;;;15.80;3.40;;;;;;;5.73;82.88;97658.66;4981795;28;20493;-81
2024/01/01 11:03:01;;;;;;;17.88;3.83;;;;;;;5.77;82.85;97651.84;4983181;28;20029;-80
2024/01/01 11:05:33;;;;;;;12.38;3.65;;;;;;;5.72;82.13;97635.88;4974073;28;20019;-80
2024/01/01 11:08:00;;;;;;;13.13;3.30;;;;;;;5.85;82.77;97662.00;4993222;28;20030;-80
2024/01/01 11:10:42;;;;;;;7.95;3.33;;;;;;;5.90;82.77;97659.44;4994583;28;20042;-80
2024/01/01 11:13:26;;;;;;;14.57;3.53;;;;;;;5.83;82.71;97661.44;4976886;28;20054;-80
2024/01/01 11:15:58;;;;;;;11.73;5.60;;;;;;;5.81;82.33;97649.50;4987129;28;20045;-80
2024/01/01 11:18:34;;;;;;;9.48;3.42;;;;;;;5.79;82.16;97647.09;4980044;28;20101;-80
2024/01/01 11:21:01;;;;;;;13.98;4.03;;;;;;;5.87;82.47;97651.19;4990606;28;20037;-80
2024/01/01 11:23:46;;;;;;;12.02;3.08;;;;;;;5.88;82.57;97666.00;4992130;28;20014;-80
2024/01/01 11:26:24;;;;;;;13.35;3.92;;;;;;;5.92;83.08;97667.94;4989867;28;20077;-80
2024/01/01 11:28:57;;;;;;;9.48;2.75;;;;;;;5.89;82.51;97655.19;4990393;28;20041;-80
2024/01/01 11:31:25;;;;;;;10.07;3.58;;;;;;;5.96;82.39;97671.66;4991105;28;20550;-80